Time;durP1;ratioP1;P1;durP2;ratioP2;P2;SDS_P1;SDS_P2;PMS_P1;PMS_P2;Temp;Humidity;BMP_temperature;BMP_pressure;BME280_temperature;BME280_humidity;BME280_pressure;Samples;Min_cycle;Max_cycle;Signal;HPM_P1;HPM_P2
2024/01/04 00:00:10;;;;;;;0.63;0.63;;;9.60;94.50;;;;;;4977799;28;20245;-94
2024/01/04 00:02:39;;;;;;;0.90;0.90;;;9.50;94.50;;;;;;4973885;28;20234;-90
2024/01/04 00:05:09;;;;;;;1.50;1.17;;;9.60;94.50;;;;;;4976313;28;20253;-91
2024/01/04 00:07:41;;;;;;;1.57;1.47;;;9.60;94.50;;;;;;4981105;28;20213;-92
2024/01/04 00:10:12;;;;;;;1.00;1.00;;;9.50;94.40;;;;;;4969334;28;20207;-92
2024/01/04 00:12:42;;;;;;;0.93;0.80;;;9.50;94.40;;;;;;4977795;28;20292;-91
2024/01/04 00:15:11;;;;;;;3.00;2.23;;;9.50;94.50;;;;;;4979016;28;20232;-92
2024/01/04 00:17:44;;;;;;;0.53;0.53;;;9.40;94.60;;;;;;4983512;28;20634;-92
2024/01/04 00:20:13;;;;;;;0.80;0.70;;;9.40;94.90;;;;;;4971925;28;20198;-90
2024/01/04 00:22:44;;;;;;;0.50;0.50;;;9.30;95.00;;;;;;4984513;28;20658;-91
2024/01/04 00:25:13;;;;;;;0.70;0.70;;;9.30;95.30;;;;;;4978125;28;20205;-92
2024/01/04 00:27:42;;;;;;;0.50;0.50;;;9.30;95.20;;;;;;4978302;28;20202;-90
2024/01/04 00:30:12;;;;;;;0.60;0.60;;;9.30;95.30;;;;;;4975509;28;20200;-90
2024/01/04 00:32:43;;;;;;;1.33;1.17;;;9.30;95.30;;;;;;4971230;28;20203;-89
2024/01/04 00:35:12;;;;;;;0.60;0.60;;;9.30;95.30;;;;;;4987377;28;20197;-91
2024/01/04 00:37:41;;;;;;;0.43;0.43;;;9.20;95.30;;;;;;4979620;28;20288;-91
2024/01/04 00:40:12;;;;;;;0.80;0.80;;;9.20;95.30;;;;;;4979197;28;20209;-89
2024/01/04 00:42:41;;;;;;;0.93;0.83;;;9.20;95.20;;;;;;4982164;28;20293;-91
2024/01/04 00:45:10;;;;;;;0.63;0.63;;;9.20;95.20;;;;;;4979989;28;20258;-92
2024/01/04 00:47:40;;;;;;;0.37;0.37;;;9.10;95.20;;;;;;4980169;28;20658;-93
2024/01/04 00:50:10;;;;;;;0.40;0.40;;;9.10;95.20;;;;;;4973486;28;20281;-92
2024/01/04 00:52:39;;;;;;;1.07;0.90;;;9.10;95.20;;;;;;4980616;28;20205;-92
2024/01/04 00:55:09;;;;;;;1.23;1.13;;;9.10;95.10;;;;;;4980823;28;20205;-92
2024/01/04 00:57:39;;;;;;;0.83;0.57;;;9.10;95.30;;;;;;4992503;28;20611;-91
2024/01/04 01:00:09;;;;;;;3.00;1.20;;;9.10;95.20;;;;;;4989603;28;20260;-90
2024/01/04 01:02:38;;;;;;;0.80;0.80;;;9.10;95.30;;;;;;4983800;28;20209;-93
2024/01/04 01:05:08;;;;;;;1.53;0.97;;;9.10;95.30;;;;;;4969923;28;20608;-91
2024/01/04 01:07:36;;;;;;;0.47;0.47;;;9.10;95.30;;;;;;4979327;28;20202;-94
2024/01/04 01:10:06;;;;;;;1.67;1.33;;;9.10;95.40;;;;;;4978654;28;20222;-91
2024/01/04 01:12:34;;;;;;;0.80;0.80;;;9.10;95.40;;;;;;4978722;28;20297;-90
2024/01/04 01:15:05;;;;;;;2.60;1.20;;;9.10;95.30;;;;;;4982179;28;20568;-91
2024/01/04 01:17:34;;;;;;;7.00;1.40;;;9.00;95.30;;;;;;4986701;28;20201;-92
2024/01/04 01:20:04;;;;;;;0.63;0.63;;;9.10;95.30;;;;;;4979199;28;20234;-92
2024/01/04 01:22:32;;;;;;;0.50;0.50;;;9.10;95.40;;;;;;4981865;28;20249;-93
2024/01/04 01:25:01;;;;;;;0.80;0.80;;;9.00;95.30;;;;;;4981511;28;20206;-94
2024/01/04 01:27:30;;;;;;;0.30;0.30;;;9.00;95.30;;;;;;4982804;28;20204;-90
2024/01/04 01:29:59;;;;;;;0.50;0.50;;;9.00;95.20;;;;;;4984543;28;20198;-93
2024/01/04 01:32:30;;;;;;;0.80;0.80;;;9.00;95.20;;;;;;4983451;28;20202;-91
2024/01/04 01:34:59;;;;;;;1.07;1.00;;;9.00;95.20;;;;;;4977535;28;20232;-92
2024/01/04 01:37:28;;;;;;;0.47;0.47;;;9.00;95.30;;;;;;4979365;28;20198;-89
2024/01/04 01:39:57;;;;;;;1.33;0.97;;;9.00;95.20;;;;;;4975621;28;20257;-91
2024/01/04 01:42:26;;;;;;;0.67;0.67;;;9.00;95.10;;;;;;4980075;28;20210;-90
2024/01/04 01:44:55;;;;;;;0.30;0.30;;;9.00;95.10;;;;;;4970400;28;20194;-92
2024/01/04 01:47:25;;;;;;;0.80;0.80;;;9.00;95.00;;;;;;4973547;28;20205;-90
2024/01/04 01:49:55;;;;;;;3.03;1.20;;;8.90;95.10;;;;;;4980915;28;20217;-90
2024/01/04 01:52:24;;;;;;;0.50;0.50;;;8.90;95.00;;;;;;4982336;28;20210;-90
2024/01/04 01:54:53;;;;;;;0.77;0.77;;;8.90;95.10;;;;;;4986226;28;20205;-90
2024/01/04 01:57:24;;;;;;;0.60;0.60;;;8.90;95.10;;;;;;4976119;28;20658;-92
2024/01/04 01:59:53;;;;;;;0.93;0.93;;;8.80;95.00;;;;;;4990762;28;20288;-93
2024/01/04 02:02:22;;;;;;;0.97;0.97;;;8.80;95.00;;;;;;4984149;28;20202;-92
2024/01/04 02:04:54;;;;;;;0.73;0.73;;;8.80;95.00;;;;;;4984212;28;20197;-92
2024/01/04 02:07:25;;;;;;;0.73;0.73;;;8.80;95.00;;;;;;4975157;28;20206;-92
2024/01/04 02:09:54;;;;;;;1.27;1.20;;;8.80;94.90;;;;;;4985432;28;20268;-91
2024/01/04 02:12:23;;;;;;;1.23;1.13;;;8.90;95.00;;;;;;4976386;28;20201;-91
2024/01/04 02:14:54;;;;;;;0.77;0.73;;;8.90;95.00;;;;;;4973292;28;20652;-92
2024/01/04 02:17:24;;;;;;;2.67;1.10;;;8.90;94.90;;;;;;4977237;28;20214;-92
2024/01/04 02:19:53;;;;;;;1.00;0.77;;;8.90;94.80;;;;;;4981348;28;20216;-90
2024/01/04 02:22:22;;;;;;;1.13;1.03;;;8.90;94.70;;;;;;4978926;28;20213;-92
2024/01/04 02:24:52;;;;;;;0.30;0.30;;;8.80;94.70;;;;;;4981380;28;20201;-91
2024/01/04 02:27:21;;;;;;;0.50;0.50;;;8.90;94.70;;;;;;4973682;28;20202;-91
2024/01/04 02:29:50;;;;;;;0.60;0.60;;;8.90;94.80;;;;;;4977405;28;20211;-94
2024/01/04 02:32:20;;;;;;;0.43;0.43;;;8.90;94.70;;;;;;4975515;28;20198;-94
2024/01/04 02:34:49;;;;;;;0.70;0.70;;;8.90;94.80;;;;;;4980768;28;20198;-92
2024/01/04 02:37:18;;;;;;;0.60;0.60;;;8.80;95.00;;;;;;4983460;28;20229;-92
2024/01/04 02:39:48;;;;;;;0.70;0.70;;;8.80;95.10;;;;;;4981146;28;20243;-93
2024/01/04 02:42:18;;;;;;;0.50;0.50;;;8.90;95.20;;;;;;4988809;28;20201;-92
2024/01/04 02:44:48;;;;;;;0.30;0.30;;;8.90;95.10;;;;;;4978423;28;20217;-93
2024/01/04 02:47:17;;;;;;;0.50;0.50;;;8.90;95.00;;;;;;4984722;28;20237;-95
2024/01/04 02:49:46;;;;;;;0.60;0.60;;;8.90;95.00;;;;;;4980268;28;20239;-91
2024/01/04 02:52:16;;;;;;;0.93;0.93;;;8.90;95.10;;;;;;4992813;28;20219;-93
2024/01/04 02:54:45;;;;;;;0.87;0.70;;;8.90;95.10;;;;;;4984184;28;20198;-90
2024/01/04 02:57:14;;;;;;;0.47;0.40;;;8.90;95.00;;;;;;4980467;28;20198;-92
2024/01/04 02:59:44;;;;;;;1.47;1.37;;;8.90;95.00;;;;;;4984163;28;20767;-92
2024/01/04 03:02:15;;;;;;;1.43;0.70;;;8.90;95.40;;;;;;4979293;28;20654;-90
2024/01/04 03:04:44;;;;;;;0.53;0.53;;;8.90;94.90;;;;;;4971880;28;20211;-90
2024/01/04 03:07:14;;;;;;;3.90;2.50;;;8.90;95.00;;;;;;4979735;28;20212;-90
2024/01/04 03:09:43;;;;;;;0.40;0.40;;;8.90;95.10;;;;;;4977449;28;20202;-86
2024/01/04 03:12:12;;;;;;;1.87;0.93;;;8.90;95.30;;;;;;4975237;28;20273;-89
2024/01/04 03:14:41;;;;;;;0.93;0.80;;;9.00;95.30;;;;;;4980930;28;20194;-88
2024/01/04 03:17:11;;;;;;;0.70;0.70;;;9.00;95.20;;;;;;4980338;28;20177;-88
2024/01/04 03:19:40;;;;;;;0.87;0.87;;;9.10;95.10;;;;;;4977123;28;20218;-91
2024/01/04 03:22:09;;;;;;;1.53;1.23;;;9.10;95.10;;;;;;4973150;28;20719;-92
2024/01/04 03:24:38;;;;;;;0.50;0.50;;;9.10;95.00;;;;;;4979108;28;20197;-92
2024/01/04 03:27:07;;;;;;;0.53;0.53;;;9.10;95.10;;;;;;4974321;28;20662;-90
2024/01/04 03:29:36;;;;;;;0.50;0.50;;;9.10;95.10;;;;;;4976626;28;20205;-86
2024/01/04 03:32:06;;;;;;;0.70;0.70;;;9.10;95.50;;;;;;4975743;28;20202;-89
2024/01/04 03:34:37;;;;;;;0.30;0.30;;;9.10;95.80;;;;;;4978332;28;20212;-89
2024/01/04 03:37:06;;;;;;;0.53;0.53;;;9.10;95.90;;;;;;4974712;28;20202;-88
2024/01/04 03:39:35;;;;;;;0.60;0.60;;;9.10;96.00;;;;;;4967702;28;20639;-89
2024/01/04 03:42:04;;;;;;;0.33;0.33;;;9.10;96.10;;;;;;4981147;28;20774;-89
2024/01/04 03:44:33;;;;;;;0.73;0.73;;;9.10;96.00;;;;;;4971744;28;20202;-85
2024/01/04 03:47:02;;;;;;;1.73;0.60;;;9.10;95.90;;;;;;4972426;28;20205;-88
2024/01/04 03:49:31;;;;;;;0.33;0.33;;;9.10;95.80;;;;;;4976523;28;20277;-88
2024/01/04 03:52:02;;;;;;;2.63;1.50;;;9.10;95.80;;;;;;4982538;28;20197;-86
2024/01/04 03:54:31;;;;;;;0.40;0.40;;;9.10;95.80;;;;;;4977611;28;20206;-84
2024/01/04 03:57:00;;;;;;;0.73;0.73;;;9.20;95.70;;;;;;4978926;28;20240;-89
2024/01/04 03:59:29;;;;;;;0.60;0.60;;;9.20;95.60;;;;;;4976036;28;20228;-92
2024/01/04 04:01:58;;;;;;;0.80;0.80;;;9.20;95.60;;;;;;4972768;28;20592;-91
2024/01/04 04:04:26;;;;;;;0.47;0.47;;;9.20;95.60;;;;;;4975778;28;20283;-95
2024/01/04 04:06:55;;;;;;;0.30;0.30;;;9.10;95.50;;;;;;4979390;28;20209;-91
2024/01/04 04:09:26;;;;;;;0.47;0.47;;;9.20;95.50;;;;;;4975842;28;20201;-91
2024/01/04 04:11:55;;;;;;;0.40;0.40;;;9.20;95.40;;;;;;4979649;28;20194;-92
2024/01/04 04:14:24;;;;;;;0.90;0.67;;;9.20;95.40;;;;;;4978726;28;20212;-93
2024/01/04 04:16:53;;;;;;;0.97;0.83;;;9.20;95.40;;;;;;4981200;28;20559;-89
2024/01/04 04:19:22;;;;;;;1.00;0.90;;;9.20;95.40;;;;;;4979313;28;20194;-91
2024/01/04 04:21:52;;;;;;;1.27;0.73;;;9.20;95.40;;;;;;4969685;28;20221;-92
2024/01/04 04:24:21;;;;;;;0.60;0.60;;;9.20;95.50;;;;;;4973712;28;20214;-94
2024/01/04 04:26:51;;;;;;;0.80;0.80;;;9.20;95.40;;;;;;4977692;28;20225;-91
2024/01/04 04:29:20;;;;;;;0.63;0.63;;;9.20;95.40;;;;;;4974859;28;20208;-91
2024/01/04 04:31:50;;;;;;;0.63;0.63;;;9.20;95.40;;;;;;4976940;28;20189;-91
2024/01/04 04:34:19;;;;;;;1.07;1.07;;;9.20;95.40;;;;;;4973354;28;20727;-89
2024/01/04 04:36:47;;;;;;;0.60;0.60;;;9.20;95.40;;;;;;4975274;28;20206;-91
2024/01/04 04:39:16;;;;;;;4.00;1.17;;;9.20;95.30;;;;;;4986823;28;20221;-88
2024/01/04 04:41:46;;;;;;;1.23;1.13;;;9.20;95.40;;;;;;4982258;28;20217;-93
2024/01/04 04:44:16;;;;;;;0.50;0.50;;;9.10;95.40;;;;;;4969182;28;20216;-92
2024/01/04 04:46:45;;;;;;;0.67;0.67;;;9.20;95.30;;;;;;4992162;28;20296;-90
2024/01/04 04:49:14;;;;;;;0.70;0.70;;;9.20;95.30;;;;;;4974825;28;20205;-90
2024/01/04 04:51:48;;;;;;;0.30;0.30;;;9.20;95.20;;;;;;4983244;28;20282;-91
2024/01/04 04:54:17;;;;;;;0.57;0.57;;;9.20;95.10;;;;;;4981610;28;20204;-90
2024/01/04 04:56:47;;;;;;;0.77;0.77;;;9.20;95.10;;;;;;4976166;28;20218;-89
2024/01/04 04:59:17;;;;;;;0.83;0.83;;;9.20;95.00;;;;;;4986362;28;20225;-92
2024/01/04 05:01:46;;;;;;;0.40;0.40;;;9.20;94.80;;;;;;4983915;28;20496;-90
2024/01/04 05:04:15;;;;;;;0.50;0.50;;;9.20;94.70;;;;;;4978850;28;20205;-92
2024/01/04 05:06:44;;;;;;;0.40;0.40;;;9.30;94.60;;;;;;4981701;28;20208;-93
2024/01/04 05:09:15;;;;;;;0.30;0.30;;;9.30;94.40;;;;;;4980068;28;20259;-90
2024/01/04 05:11:44;;;;;;;0.63;0.63;;;9.30;94.30;;;;;;4986744;28;20194;-89
2024/01/04 05:14:13;;;;;;;1.50;1.40;;;9.30;94.20;;;;;;4979602;28;20197;-93
2024/01/04 05:16:44;;;;;;;0.83;0.83;;;9.20;94.00;;;;;;4982801;28;20210;-92
2024/01/04 05:19:14;;;;;;;0.30;0.30;;;9.30;94.30;;;;;;4979452;28;20194;-93
2024/01/04 05:21:43;;;;;;;0.53;0.53;;;9.20;93.80;;;;;;4982222;28;20214;-94
2024/01/04 05:24:12;;;;;;;1.53;0.63;;;9.20;93.70;;;;;;4974940;28;20232;-93
2024/01/04 05:26:41;;;;;;;0.70;0.70;;;9.20;93.70;;;;;;4982445;28;20212;-93
2024/01/04 05:29:10;;;;;;;1.03;0.93;;;9.20;93.60;;;;;;4979291;28;20676;-93
2024/01/04 05:31:39;;;;;;;1.73;0.80;;;9.20;93.50;;;;;;4974647;28;20233;-93
2024/01/04 05:34:09;;;;;;;1.83;1.70;;;9.20;93.40;;;;;;4971200;28;20918;-92
2024/01/04 05:36:38;;;;;;;1.77;0.73;;;9.20;93.40;;;;;;4975240;28;20268;-92
2024/01/04 05:39:08;;;;;;;1.03;0.90;;;9.10;93.30;;;;;;4975496;28;20190;-92
2024/01/04 05:41:38;;;;;;;0.77;0.77;;;9.20;93.30;;;;;;4981299;28;20239;-93
2024/01/04 05:44:07;;;;;;;0.50;0.50;;;9.20;93.20;;;;;;4976425;28;20205;-94
2024/01/04 05:46:36;;;;;;;0.83;0.63;;;9.10;93.20;;;;;;4973987;28;20225;-89
2024/01/04 05:49:06;;;;;;;0.83;0.83;;;9.10;93.10;;;;;;4972734;28;20198;-89
2024/01/04 05:51:37;;;;;;;0.97;0.73;;;9.10;93.00;;;;;;4971729;28;20210;-90
2024/01/04 05:54:10;;;;;;;0.83;0.83;;;9.00;93.00;;;;;;4969734;28;20198;-91
2024/01/04 05:56:41;;;;;;;1.20;1.13;;;9.00;93.00;;;;;;4972519;28;20673;-92
2024/01/04 05:59:10;;;;;;;0.40;0.40;;;9.00;93.10;;;;;;4968275;28;20236;-86
2024/01/04 06:01:39;;;;;;;0.70;0.70;;;9.00;93.20;;;;;;4967840;28;20301;-84
2024/01/04 06:04:08;;;;;;;0.67;0.67;;;8.90;93.30;;;;;;4967476;28;20206;-86
2024/01/04 06:06:38;;;;;;;11.83;1.83;;;9.00;93.30;;;;;;4972185;28;20681;-86
2024/01/04 06:09:07;;;;;;;3.03;1.07;;;9.00;93.30;;;;;;4974440;28;20201;-85
2024/01/04 06:11:38;;;;;;;0.73;0.73;;;9.00;93.40;;;;;;4969593;28;20190;-86
2024/01/04 06:14:07;;;;;;;2.00;1.13;;;9.00;93.40;;;;;;4971545;28;20206;-83
2024/01/04 06:16:36;;;;;;;0.53;0.53;;;9.00;93.50;;;;;;4976435;28;20205;-84
2024/01/04 06:19:06;;;;;;;1.60;0.97;;;9.00;93.50;;;;;;4968218;28;20221;-92
2024/01/04 06:21:35;;;;;;;0.87;0.87;;;9.00;93.50;;;;;;4981929;28;20225;-93
2024/01/04 06:24:06;;;;;;;1.47;1.37;;;9.00;93.50;;;;;;4980243;28;20199;-92
2024/01/04 06:26:36;;;;;;;1.27;1.17;;;9.10;93.50;;;;;;4979149;28;20843;-92
2024/01/04 06:29:08;;;;;;;0.70;0.70;;;9.10;93.50;;;;;;4976664;28;20264;-92
2024/01/04 06:31:37;;;;;;;0.33;0.33;;;9.10;93.50;;;;;;4976526;28;20194;-87
2024/01/04 06:34:06;;;;;;;0.30;0.30;;;9.10;93.50;;;;;;4967434;28;20209;-86
2024/01/04 06:36:37;;;;;;;0.60;0.60;;;9.20;93.50;;;;;;4973236;28;20209;-92
2024/01/04 06:39:09;;;;;;;1.87;1.33;;;9.20;93.50;;;;;;4975830;28;20218;-90
2024/01/04 06:41:39;;;;;;;0.50;0.50;;;9.20;93.50;;;;;;4976145;28;20201;-87
2024/01/04 06:44:09;;;;;;;0.70;0.70;;;9.20;93.60;;;;;;4973724;28;20728;-87
2024/01/04 06:46:38;;;;;;;4.03;2.10;;;9.20;93.70;;;;;;4978191;28;20244;-91
2024/01/04 06:49:07;;;;;;;1.30;1.17;;;9.30;93.70;;;;;;4974008;28;20208;-83
2024/01/04 06:51:36;;;;;;;0.50;0.50;;;9.30;93.70;;;;;;4978363;28;20300;-87
2024/01/04 06:54:08;;;;;;;1.47;0.70;;;9.30;93.80;;;;;;4975552;28;20195;-89
2024/01/04 06:56:37;;;;;;;0.40;0.40;;;9.30;93.80;;;;;;4974027;28;20197;-83
2024/01/04 06:59:06;;;;;;;1.23;1.00;;;9.30;93.80;;;;;;4981154;28;20660;-85
2024/01/04 07:01:35;;;;;;;1.30;1.20;;;9.30;93.80;;;;;;4976550;28;20221;-86
2024/01/04 07:04:06;;;;;;;0.50;0.50;;;9.40;93.80;;;;;;4966664;28;20209;-83
2024/01/04 07:06:35;;;;;;;1.43;1.33;;;9.40;93.90;;;;;;4981159;28;20232;-85
2024/01/04 07:09:05;;;;;;;1.00;0.93;;;9.40;93.90;;;;;;4979374;28;20562;-84
2024/01/04 07:11:35;;;;;;;1.27;1.00;;;9.40;93.90;;;;;;4970380;28;20234;-84
2024/01/04 07:14:04;;;;;;;0.63;0.63;;;9.40;93.80;;;;;;4976744;28;20205;-83
2024/01/04 07:16:33;;;;;;;0.70;0.70;;;9.40;93.80;;;;;;4970639;28;20213;-84
2024/01/04 07:19:02;;;;;;;1.57;1.17;;;9.40;93.80;;;;;;4976072;28;20205;-85
2024/01/04 07:21:31;;;;;;;2.63;1.40;;;9.40;93.70;;;;;;4972547;28;20204;-85
2024/01/04 07:24:00;;;;;;;0.47;0.47;;;9.40;93.80;;;;;;4984378;28;20198;-87
2024/01/04 07:26:29;;;;;;;0.73;0.73;;;9.40;93.70;;;;;;4972062;28;20205;-88
2024/01/04 07:29:00;;;;;;;0.70;0.67;;;9.50;93.80;;;;;;4976692;28;20201;-88
2024/01/04 07:31:29;;;;;;;2.20;1.10;;;9.50;93.70;;;;;;4971955;28;20561;-88
2024/01/04 07:33:58;;;;;;;0.90;0.90;;;9.50;93.70;;;;;;4973603;28;20212;-87
2024/01/04 07:36:27;;;;;;;0.57;0.57;;;9.50;93.70;;;;;;4985615;28;20202;-87
2024/01/04 07:38:57;;;;;;;0.50;0.50;;;9.50;93.70;;;;;;4972117;28;20241;-90
2024/01/04 07:41:26;;;;;;;1.10;1.00;;;9.50;93.80;;;;;;4979179;28;20238;-90
2024/01/04 07:44:00;;;;;;;0.70;0.70;;;9.50;93.80;;;;;;4972790;28;20221;-90
2024/01/04 07:46:30;;;;;;;0.40;0.40;;;9.50;93.80;;;;;;4980059;28;20221;-88
2024/01/04 07:48:59;;;;;;;0.87;0.60;;;9.50;93.80;;;;;;4978739;28;20233;-89
2024/01/04 07:51:29;;;;;;;2.57;0.87;;;9.50;93.80;;;;;;4972256;28;20654;-88
2024/01/04 07:53:58;;;;;;;1.47;1.20;;;9.50;93.80;;;;;;4973502;28;20244;-89
2024/01/04 07:56:27;;;;;;;1.57;1.47;;;9.70;93.90;;;;;;4979448;28;20224;-88
2024/01/04 07:58:56;;;;;;;2.33;1.23;;;9.70;93.90;;;;;;4981721;28;20240;-89
2024/01/04 08:01:26;;;;;;;0.87;0.87;;;9.80;93.90;;;;;;4972655;28;20202;-89
2024/01/04 08:03:55;;;;;;;0.90;0.90;;;9.80;93.90;;;;;;4971339;28;20225;-88
2024/01/04 08:06:24;;;;;;;0.70;0.70;;;9.80;93.90;;;;;;4975524;28;20197;-86
2024/01/04 08:08:53;;;;;;;0.60;0.60;;;9.90;93.90;;;;;;4978747;28;20196;-88
2024/01/04 08:11:22;;;;;;;0.37;0.37;;;10.00;93.90;;;;;;4972953;28;20221;-87
2024/01/04 08:13:52;;;;;;;0.60;0.60;;;10.10;93.80;;;;;;4976429;28;20284;-87
2024/01/04 08:16:21;;;;;;;0.53;0.50;;;10.20;93.70;;;;;;4973690;28;20200;-89
2024/01/04 08:18:51;;;;;;;1.30;1.07;;;10.20;93.70;;;;;;4973868;28;20673;-91
2024/01/04 08:21:20;;;;;;;0.40;0.40;;;10.30;93.60;;;;;;4981899;28;20210;-87
2024/01/04 08:23:51;;;;;;;1.53;1.13;;;10.40;93.60;;;;;;4984366;28;20217;-89
2024/01/04 08:26:20;;;;;;;0.60;0.60;;;10.50;93.60;;;;;;4978526;28;20198;-90
2024/01/04 08:28:49;;;;;;;1.30;0.57;;;10.50;93.40;;;;;;4973817;28;20198;-90
2024/01/04 08:31:22;;;;;;;0.67;0.60;;;10.60;93.30;;;;;;4982865;28;20197;-89
2024/01/04 08:33:52;;;;;;;1.33;1.23;;;10.60;93.20;;;;;;4973024;28;20199;-89
2024/01/04 08:36:23;;;;;;;2.13;1.40;;;10.70;93.10;;;;;;4976983;28;20205;-88
2024/01/04 08:38:52;;;;;;;1.63;0.90;;;10.70;93.00;;;;;;4986798;28;20189;-89
2024/01/04 08:41:21;;;;;;;0.47;0.47;;;10.80;93.00;;;;;;4977734;28;20201;-89
2024/01/04 08:43:50;;;;;;;1.93;1.83;;;10.80;92.90;;;;;;4980314;28;20317;-88
2024/01/04 08:46:19;;;;;;;0.73;0.50;;;10.80;92.90;;;;;;4978469;28;20201;-91
2024/01/04 08:48:48;;;;;;;0.80;0.80;;;10.80;92.90;;;;;;4982294;28;20182;-91
2024/01/04 08:51:19;;;;;;;0.80;0.80;;;10.90;92.90;;;;;;4981849;28;20293;-90
2024/01/04 08:53:49;;;;;;;0.50;0.50;;;11.00;93.00;;;;;;4971750;28;20194;-90
2024/01/04 08:56:20;;;;;;;0.53;0.53;;;11.10;93.00;;;;;;4975565;28;20614;-90
2024/01/04 08:58:49;;;;;;;1.50;1.23;;;11.20;92.90;;;;;;4973955;28;20226;-89
2024/01/04 09:01:19;;;;;;;0.73;0.73;;;11.30;92.80;;;;;;4984429;28;20266;-90
2024/01/04 09:03:50;;;;;;;0.30;0.30;;;11.40;92.80;;;;;;4972170;28;20224;-90
2024/01/04 09:06:20;;;;;;;2.20;1.20;;;11.50;92.80;;;;;;4978162;28;20209;-87
2024/01/04 09:08:51;;;;;;;0.40;0.40;;;11.60;92.60;;;;;;4986950;28;20198;-89
2024/01/04 09:11:20;;;;;;;1.17;0.93;;;11.70;92.60;;;;;;4983076;28;20210;-88
2024/01/04 09:13:49;;;;;;;1.30;0.90;;;11.80;92.40;;;;;;4981505;28;20229;-90
2024/01/04 09:16:17;;;;;;;1.80;0.90;;;11.80;92.20;;;;;;4979546;28;20471;-89
2024/01/04 09:18:46;;;;;;;1.60;0.73;;;11.90;91.90;;;;;;4980509;28;20297;-92
2024/01/04 09:21:15;;;;;;;0.40;0.40;;;12.00;92.00;;;;;;4985372;28;20252;-89
2024/01/04 09:23:46;;;;;;;1.97;1.20;;;12.10;92.00;;;;;;4984230;28;20301;-91
2024/01/04 09:26:15;;;;;;;2.57;1.57;;;12.20;91.90;;;;;;4975572;28;20205;-90
2024/01/04 09:28:44;;;;;;;0.83;0.60;;;12.30;91.90;;;;;;4978254;28;20209;-90
2024/01/04 09:31:13;;;;;;;2.83;1.47;;;12.40;91.90;;;;;;4976779;28;20501;-90
2024/01/04 09:33:41;;;;;;;0.60;0.57;;;12.50;91.90;;;;;;4979482;28;20228;-86
2024/01/04 09:36:11;;;;;;;0.77;0.53;;;12.60;91.70;;;;;;4980354;28;20823;-88
2024/01/04 09:38:40;;;;;;;0.60;0.60;;;12.60;91.50;;;;;;4982128;28;20198;-87
2024/01/04 09:41:20;;;;;;;1.00;0.97;;;12.70;91.20;;;;;;4970334;28;20297;-86
2024/01/04 09:43:54;;;;;;;0.60;0.60;;;12.80;91.20;;;;;;4978582;28;20247;-90
2024/01/04 09:46:28;;;;;;;0.60;0.60;;;13.00;91.20;;;;;;4979807;28;20224;-86
2024/01/04 09:48:59;;;;;;;0.43;0.43;;;13.10;90.80;;;;;;4981708;28;20368;-86
2024/01/04 09:51:30;;;;;;;1.43;1.13;;;13.20;90.60;;;;;;4983902;28;20293;-87
2024/01/04 09:54:00;;;;;;;2.03;1.17;;;13.20;90.60;;;;;;4985121;28;20215;-87
2024/01/04 09:56:32;;;;;;;0.83;0.83;;;13.30;90.00;;;;;;4985229;28;20654;-89
2024/01/04 09:59:01;;;;;;;0.40;0.40;;;13.40;90.10;;;;;;4973256;28;20288;-90
2024/01/04 10:01:33;;;;;;;0.80;0.80;;;13.50;89.70;;;;;;4986135;28;20231;-90
2024/01/04 10:04:07;;;;;;;0.50;0.50;;;13.60;89.20;;;;;;4976163;28;20285;-89
2024/01/04 10:06:38;;;;;;;1.03;0.67;;;13.70;89.50;;;;;;4979790;28;20205;-89
2024/01/04 10:09:16;;;;;;;1.73;1.00;;;13.80;89.80;;;;;;4980579;28;20202;-88
2024/01/04 10:12:05;;;;;;;0.50;0.50;;;13.90;89.30;;;;;;4981264;28;20221;-89
2024/01/04 10:14:35;;;;;;;0.60;0.60;;;14.10;89.40;;;;;;4978044;28;20296;-89
2024/01/04 10:17:04;;;;;;;0.80;0.80;;;14.20;87.50;;;;;;4976146;28;20224;-90
2024/01/04 10:19:34;;;;;;;1.03;0.90;;;14.40;87.40;;;;;;4969927;28;20206;-90
2024/01/04 10:22:05;;;;;;;0.87;0.73;;;14.50;87.10;;;;;;4982186;28;20236;-89
2024/01/04 10:24:37;;;;;;;0.50;0.50;;;14.60;86.60;;;;;;4977628;28;20224;-89
2024/01/04 10:27:09;;;;;;;0.83;0.57;;;14.70;86.50;;;;;;4976961;28;20199;-89
2024/01/04 10:29:40;;;;;;;0.77;0.77;;;14.70;86.10;;;;;;4989259;28;20795;-89
2024/01/04 10:32:13;;;;;;;0.50;0.50;;;14.80;86.10;;;;;;4982404;28;20194;-89
2024/01/04 10:34:43;;;;;;;0.60;0.60;;;14.90;86.00;;;;;;4979106;28;20244;-86
2024/01/04 10:37:14;;;;;;;2.13;1.27;;;15.00;85.90;;;;;;4977736;28;20204;-87
2024/01/04 10:39:45;;;;;;;0.70;0.70;;;15.10;85.50;;;;;;4979737;28;20206;-90
2024/01/04 10:42:16;;;;;;;0.97;0.80;;;15.20;85.00;;;;;;4983770;28;20197;-89
2024/01/04 10:44:52;;;;;;;2.90;1.53;;;15.20;84.20;;;;;;4971037;28;20260;-87
2024/01/04 10:47:21;;;;;;;2.77;1.07;;;15.40;85.10;;;;;;4977375;28;20199;-88
2024/01/04 10:49:57;;;;;;;10.10;0.73;;;15.40;84.30;;;;;;4972724;28;20204;-88
2024/01/04 10:52:31;;;;;;;2.57;1.43;;;15.40;83.50;;;;;;4977995;28;20229;-88
2024/01/04 10:55:03;;;;;;;0.47;0.47;;;15.50;83.60;;;;;;4978861;28;20280;-88
2024/01/04 10:57:36;;;;;;;2.90;1.13;;;15.50;83.40;;;;;;4977621;28;20204;-89
2024/01/04 11:00:07;;;;;;;0.97;0.60;;;15.60;83.00;;;;;;4973112;28;20922;-90
2024/01/04 11:02:36;;;;;;;1.07;0.73;;;15.50;82.30;;;;;;4978278;28;20201;-88
2024/01/04 11:05:10;;;;;;;0.37;0.37;;;15.70;83.00;;;;;;4977402;28;20236;-88
2024/01/04 11:07:40;;;;;;;1.03;0.93;;;15.80;82.60;;;;;;4977637;28;20248;-90
2024/01/04 11:10:12;;;;;;;0.47;0.47;;;15.80;81.90;;;;;;4977126;28;20229;-91
2024/01/04 11:12:45;;;;;;;0.60;0.60;;;15.90;82.20;;;;;;4982162;28;20182;-89
2024/01/04 11:15:16;;;;;;;1.20;0.83;;;15.90;82.00;;;;;;4974010;28;20194;-88
2024/01/04 11:17:58;;;;;;;0.67;0.67;;;15.90;81.60;;;;;;4974072;28;20414;-88
2024/01/04 11:20:42;;;;;;;1.50;1.07;;;15.90;81.70;;;;;;4973338;28;20205;-89
2024/01/04 11:23:36;;;;;;;1.80;0.67;;;15.80;81.30;;;;;;4979935;28;20210;-88
2024/01/04 11:26:21;;;;;;;1.13;0.60;;;15.80;81.50;;;;;;4979879;28;20371;-87
2024/01/04 11:28:51;;;;;;;0.57;0.57;;;15.70;81.30;;;;;;4970426;28;20194;-90
2024/01/04 11:31:24;;;;;;;1.23;1.13;;;15.60;81.00;;;;;;4968711;28;20540;-85
2024/01/04 11:33:54;;;;;;;0.30;0.30;;;15.60;81.30;;;;;;4971532;28;20228;-89
2024/01/04 11:36:24;;;;;;;1.27;1.03;;;15.50;81.30;;;;;;4979702;28;20258;-88
2024/01/04 11:38:57;;;;;;;0.80;0.73;;;15.50;81.70;;;;;;4980580;28;20209;-89
2024/01/04 11:41:35;;;;;;;1.60;0.60;;;15.40;82.60;;;;;;4983872;28;20201;-89
2024/01/04 11:44:17;;;;;;;0.60;0.60;;;15.40;82.00;;;;;;4987253;28;20284;-88
2024/01/04 11:46:46;;;;;;;0.40;0.40;;;15.40;82.30;;;;;;4980815;28;20244;-91
2024/01/04 11:49:15;;;;;;;3.43;1.77;;;15.30;81.80;;;;;;4968914;28;20199;-91
2024/01/04 11:51:46;;;;;;;1.00;0.97;;;15.30;81.90;;;;;;4976097;28;20239;-88
2024/01/04 11:54:17;;;;;;;1.47;1.37;;;15.30;81.90;;;;;;4969489;28;20232;-89
2024/01/04 11:56:49;;;;;;;1.50;1.23;;;15.20;81.80;;;;;;4978198;28;20206;-89
2024/01/04 11:59:21;;;;;;;0.63;0.63;;;15.20;81.90;;;;;;4975446;28;20228;-90
2024/01/04 12:01:50;;;;;;;0.53;0.53;;;15.10;81.70;;;;;;4970815;28;20202;-89
2024/01/04 12:04:20;;;;;;;0.53;0.30;;;15.10;81.90;;;;;;4968794;28;20229;-88
2024/01/04 12:06:50;;;;;;;0.73;0.60;;;15.10;82.10;;;;;;4969305;28;20300;-87
2024/01/04 12:09:19;;;;;;;1.40;0.90;;;15.20;82.50;;;;;;4977060;28;20200;-88
2024/01/04 12:11:57;;;;;;;1.90;1.43;;;15.10;82.60;;;;;;4980300;28;20220;-87
2024/01/04 12:14:28;;;;;;;7.50;1.07;;;15.10;82.60;;;;;;4966573;28;20211;-88
2024/01/04 12:16:57;;;;;;;0.67;0.67;;;15.20;82.80;;;;;;4974466;28;20202;-85
2024/01/04 12:19:27;;;;;;;1.33;1.23;;;15.20;82.80;;;;;;4971790;28;20201;-85
2024/01/04 12:21:56;;;;;;;1.00;0.70;;;15.10;82.70;;;;;;4966947;28;20654;-85
2024/01/04 12:24:26;;;;;;;0.30;0.30;;;15.10;82.70;;;;;;4973740;28;20253;-86
2024/01/04 12:26:55;;;;;;;5.60;1.33;;;15.20;82.90;;;;;;4976260;28;20216;-87
2024/01/04 12:29:23;;;;;;;0.50;0.50;;;15.20;83.00;;;;;;4969793;28;20188;-88
2024/01/04 12:31:53;;;;;;;1.60;1.30;;;15.20;83.10;;;;;;4967666;28;20217;-88
2024/01/04 12:34:23;;;;;;;0.60;0.60;;;15.20;83.10;;;;;;4975883;28;20592;-89
2024/01/04 12:36:52;;;;;;;5.83;1.83;;;15.30;83.30;;;;;;4971949;28;20203;-89
2024/01/04 12:39:22;;;;;;;1.13;0.87;;;15.30;83.10;;;;;;4972680;28;20216;-89
2024/01/04 12:41:51;;;;;;;1.00;0.90;;;15.30;83.80;;;;;;4974797;28;20208;-88
2024/01/04 12:44:21;;;;;;;1.50;0.90;;;15.30;83.10;;;;;;4970762;28;20210;-88
2024/01/04 12:46:50;;;;;;;1.27;1.17;;;15.30;83.20;;;;;;4974790;28;20225;-89
2024/01/04 12:49:21;;;;;;;1.40;1.30;;;15.30;83.20;;;;;;4972623;28;20213;-89
2024/01/04 12:51:53;;;;;;;0.73;0.73;;;15.30;83.10;;;;;;4973934;28;20305;-88
2024/01/04 12:54:22;;;;;;;0.53;0.53;;;15.20;83.10;;;;;;4977724;28;20238;-86
2024/01/04 12:56:54;;;;;;;1.20;1.10;;;15.20;83.30;;;;;;4979697;28;20205;-88
2024/01/04 12:59:24;;;;;;;4.00;1.63;;;15.10;83.60;;;;;;4977881;28;20328;-88
2024/01/04 13:01:53;;;;;;;1.93;0.63;;;15.10;83.70;;;;;;4972553;28;20233;-89
2024/01/04 13:04:23;;;;;;;2.23;0.93;;;15.10;84.00;;;;;;4974282;28;20229;-88
2024/01/04 13:06:53;;;;;;;3.73;1.47;;;15.10;84.00;;;;;;4980233;28;20692;-89